createdAt,value
2023-03-27T00:02:08.303Z,7.20
2023-03-27T00:04:35.249Z,7.30
2023-03-27T00:07:01.983Z,7.10
2023-03-27T00:09:29.775Z,7.00
2023-03-27T00:11:56.595Z,7.30
2023-03-27T00:14:24.028Z,7.50
2023-03-27T00:16:51.390Z,7.40
2023-03-27T00:19:19.059Z,7.20
2023-03-27T00:21:46.013Z,7.20
2023-03-27T00:24:12.901Z,7.20
2023-03-27T00:26:40.790Z,7.30
2023-03-27T00:29:07.948Z,7.30
2023-03-27T00:31:35.074Z,7.60
2023-03-27T00:34:02.419Z,7.50
2023-03-27T00:36:29.146Z,6.90
2023-03-27T00:38:55.836Z,6.80
2023-03-27T00:41:23.380Z,6.90
2023-03-27T00:43:53.301Z,7.10
2023-03-27T00:46:31.954Z,7.40
2023-03-27T00:49:01.776Z,7.10
2023-03-27T00:51:29.327Z,7.10
2023-03-27T00:53:56.388Z,7.10
2023-03-27T00:56:23.660Z,7.00
2023-03-27T00:58:57.718Z,6.90
2023-03-27T01:01:27.631Z,6.90
2023-03-27T01:03:58.509Z,6.70
2023-03-27T01:06:25.349Z,6.70
2023-03-27T01:08:52.068Z,6.40
2023-03-27T01:11:43.565Z,6.30
2023-03-27T01:14:42.545Z,6.10
2023-03-27T01:17:55.521Z,6.20
2023-03-27T01:20:32.542Z,6.40
2023-03-27T01:23:02.247Z,6.60
2023-03-27T01:25:35.912Z,6.70
2023-03-27T01:28:32.977Z,6.50
2023-03-27T01:31:48.793Z,6.10
2023-03-27T01:34:34.914Z,5.90
2023-03-27T01:37:24.882Z,6.00
2023-03-27T01:40:16.625Z,5.90
2023-03-27T01:42:49.245Z,6.10
2023-03-27T01:45:23.116Z,6.40
2023-03-27T01:47:57.649Z,6.30
2023-03-27T01:50:29.051Z,6.00
2023-03-27T01:53:01.309Z,6.00
2023-03-27T01:55:33.145Z,5.60
2023-03-27T01:58:08.122Z,5.80
2023-03-27T02:00:51.006Z,5.60
2023-03-27T02:03:27.690Z,5.70
2023-03-27T02:06:08.640Z,5.80
2023-03-27T02:08:42.843Z,5.90
2023-03-27T02:11:18.857Z,5.80
2023-03-27T02:13:50.588Z,5.90
2023-03-27T02:16:20.159Z,5.80
2023-03-27T02:18:51.995Z,5.90
2023-03-27T02:21:18.785Z,5.90
2023-03-27T02:23:47.589Z,5.90
2023-03-27T02:26:14.382Z,5.80
2023-03-27T02:29:10.850Z,5.90
2023-03-27T02:32:05.572Z,5.60
2023-03-27T02:34:38.221Z,5.20
2023-03-27T02:37:05.144Z,5.20
2023-03-27T02:40:40.358Z,4.80
2023-03-27T02:43:38.801Z,4.80
2023-03-27T02:46:15.919Z,4.90
2023-03-27T02:48:47.643Z,4.90
2023-03-27T02:51:19.272Z,4.80
2023-03-27T02:53:55.820Z,4.40
2023-03-27T02:56:24.786Z,4.50
2023-03-27T02:59:28.766Z,4.50
2023-03-27T03:01:55.679Z,4.60
2023-03-27T03:04:41.992Z,4.40
2023-03-27T03:07:18.511Z,4.40
2023-03-27T03:09:45.320Z,4.40
2023-03-27T03:12:12.330Z,4.70
2023-03-27T03:14:44.166Z,4.50
2023-03-27T03:17:12.115Z,4.50
2023-03-27T03:19:38.904Z,4.70
2023-03-27T03:22:07.735Z,4.50
2023-03-27T03:24:35.678Z,4.40
2023-03-27T03:27:04.240Z,4.20
2023-03-27T03:29:37.010Z,4.10
2023-03-27T03:32:15.523Z,4.20
2023-03-27T03:34:46.585Z,4.10
2023-03-27T03:37:15.252Z,3.90
2023-03-27T03:39:41.987Z,3.70
2023-03-27T03:42:08.644Z,3.70
2023-03-27T03:44:37.110Z,3.70
2023-03-27T03:47:22.860Z,3.70
2023-03-27T03:49:50.605Z,3.80
2023-03-27T03:52:17.495Z,3.90
2023-03-27T03:54:46.563Z,3.80
2023-03-27T03:57:13.665Z,3.70
2023-03-27T03:59:40.679Z,3.80
2023-03-27T04:02:30.903Z,3.90
2023-03-27T04:05:08.572Z,4.40
2023-03-27T04:07:36.927Z,4.20
2023-03-27T04:10:36.230Z,4.10
2023-03-27T04:13:06.896Z,4.20
2023-03-27T04:15:37.729Z,4.40
2023-03-27T04:18:33.142Z,4.50
2023-03-27T04:21:03.410Z,3.90
2023-03-27T04:23:30.391Z,4.10
2023-03-27T04:26:02.069Z,4.30
2023-03-27T04:28:51.895Z,4.40
2023-03-27T04:31:39.080Z,4.20
2023-03-27T04:34:25.103Z,4.70
2023-03-27T04:37:14.686Z,5.10
2023-03-27T04:39:53.612Z,5.20
2023-03-27T04:42:23.578Z,5.30
2023-03-27T04:44:52.464Z,5.40
2023-03-27T04:47:20.573Z,5.20
2023-03-27T04:49:51.185Z,4.70
2023-03-27T04:52:22.220Z,5.20
2023-03-27T04:54:49.282Z,5.30
2023-03-27T04:57:19.175Z,5.20
2023-03-27T04:59:48.616Z,4.60
2023-03-27T05:02:52.571Z,4.70
2023-03-27T05:05:35.724Z,4.60
2023-03-27T05:08:05.572Z,4.50
2023-03-27T05:10:32.315Z,4.90
2023-03-27T05:13:00.330Z,5.20
2023-03-27T05:15:30.264Z,4.90
2023-03-27T05:18:00.680Z,4.80
2023-03-27T05:20:27.759Z,5.00
2023-03-27T05:22:56.382Z,5.20
2023-03-27T05:25:27.759Z,5.20
2023-03-27T05:27:55.593Z,5.40
2023-03-27T05:30:27.063Z,5.40
2023-03-27T05:33:13.896Z,5.50
2023-03-27T05:35:46.768Z,5.60
2023-03-27T05:38:14.204Z,5.60
2023-03-27T05:41:07.317Z,5.40
2023-03-27T05:43:39.359Z,4.80
2023-03-27T05:46:06.110Z,4.80
2023-03-27T05:48:32.880Z,5.00
2023-03-27T05:51:01.783Z,5.20
2023-03-27T05:53:28.686Z,5.30
2023-03-27T05:56:18.903Z,5.30
2023-03-27T05:58:54.254Z,5.60
2023-03-27T06:01:23.491Z,5.70
2023-03-27T06:03:55.932Z,5.90
2023-03-27T06:06:35.387Z,5.10
2023-03-27T06:09:03.677Z,5.40
2023-03-27T06:11:30.699Z,5.70
2023-03-27T06:13:58.729Z,6.10
2023-03-27T06:16:39.964Z,6.30
2023-03-27T06:19:23.594Z,6.20
2023-03-27T06:21:51.497Z,6.30
2023-03-27T06:24:18.637Z,6.20
2023-03-27T06:26:45.246Z,5.90
2023-03-27T06:29:13.220Z,5.90
2023-03-27T06:31:46.042Z,5.50
2023-03-27T06:34:18.496Z,5.30
2023-03-27T06:37:10.315Z,5.60
2023-03-27T06:39:40.263Z,5.60
2023-03-27T06:42:07.041Z,5.70
2023-03-27T06:44:47.676Z,5.70
2023-03-27T06:47:41.493Z,5.30
2023-03-27T06:50:35.230Z,5.60
2023-03-27T06:53:03.038Z,5.60
2023-03-27T06:55:43.957Z,5.30
2023-03-27T06:58:16.658Z,5.30
2023-03-27T07:00:43.662Z,5.30
2023-03-27T07:03:21.452Z,5.30
2023-03-27T07:06:08.323Z,5.40
2023-03-27T07:08:43.345Z,5.60
2023-03-27T07:11:12.165Z,6.10
2023-03-27T07:14:05.515Z,6.10
2023-03-27T07:16:32.343Z,5.90
2023-03-27T07:19:02.263Z,6.20
2023-03-27T07:21:32.009Z,5.80
2023-03-27T07:23:59.577Z,5.90
2023-03-27T07:26:36.178Z,6.10
2023-03-27T07:29:22.959Z,5.70
2023-03-27T07:31:57.876Z,6.50
2023-03-27T07:34:37.137Z,6.30
2023-03-27T07:37:09.550Z,6.40
2023-03-27T07:39:39.677Z,6.20
2023-03-27T07:42:07.275Z,6.80
2023-03-27T07:44:48.752Z,7.10
2023-03-27T07:47:15.451Z,7.00
2023-03-27T07:49:43.057Z,7.70
2023-03-27T07:52:14.700Z,7.10
2023-03-27T07:54:51.661Z,7.10
2023-03-27T07:57:21.532Z,6.80
2023-03-27T07:59:52.575Z,7.00
2023-03-27T08:02:27.666Z,6.80
2023-03-27T08:04:55.159Z,7.00
2023-03-27T08:07:22.761Z,7.10
2023-03-27T08:09:49.470Z,6.70
2023-03-27T08:12:15.989Z,6.80
2023-03-27T08:14:54.560Z,7.20
2023-03-27T08:17:27.772Z,7.00
2023-03-27T08:19:55.859Z,6.80
2023-03-27T08:22:24.472Z,7.00
2023-03-27T08:25:12.633Z,6.90
2023-03-27T08:27:40.325Z,7.10
2023-03-27T08:30:07.718Z,6.90
2023-03-27T08:32:43.714Z,7.30
2023-03-27T08:35:11.013Z,7.50
2023-03-27T08:37:37.701Z,7.80
2023-03-27T08:40:33.854Z,7.10
2023-03-27T08:43:35.909Z,7.00
2023-03-27T08:46:06.417Z,6.70
2023-03-27T08:48:44.136Z,7.50
2023-03-27T08:51:18.823Z,8.00
2023-03-27T08:53:55.637Z,8.40
2023-03-27T08:56:26.916Z,8.60
2023-03-27T08:58:55.199Z,7.90
2023-03-27T09:01:33.458Z,7.20
2023-03-27T09:04:13.507Z,7.60
2023-03-27T09:06:57.372Z,7.60
2023-03-27T09:09:46.264Z,7.80
2023-03-27T09:12:30.020Z,7.60
2023-03-27T09:15:13.015Z,7.30
2023-03-27T09:17:59.084Z,8.00
2023-03-27T09:20:34.129Z,8.70
2023-03-27T09:23:10.961Z,8.10
2023-03-27T09:25:59.380Z,8.90
2023-03-27T09:29:24.795Z,8.50
2023-03-27T09:32:04.004Z,8.40
2023-03-27T09:34:33.403Z,9.10
2023-03-27T09:37:00.601Z,8.70
2023-03-27T09:39:33.891Z,8.80
2023-03-27T09:42:26.193Z,9.10
2023-03-27T09:44:57.609Z,8.80
2023-03-27T09:47:38.291Z,8.80
2023-03-27T09:50:42.750Z,9.30
2023-03-27T09:53:20.786Z,8.70
2023-03-27T09:55:58.669Z,9.40
2023-03-27T09:58:33.491Z,9.70
2023-03-27T10:01:09.090Z,9.50
2023-03-27T10:03:49.121Z,9.50
2023-03-27T10:06:38.765Z,8.80
2023-03-27T10:09:35.226Z,8.00
2023-03-27T10:12:07.743Z,7.90
2023-03-27T10:14:38.614Z,9.00
2023-03-27T10:17:06.012Z,9.50
2023-03-27T10:19:36.281Z,9.10
2023-03-27T10:22:43.686Z,8.20
2023-03-27T10:25:19.709Z,8.70
2023-03-27T10:28:22.286Z,9.20
2023-03-27T10:31:26.385Z,9.10
2023-03-27T10:34:02.270Z,9.30
2023-03-27T10:37:21.041Z,9.60
2023-03-27T10:39:53.290Z,9.50
2023-03-27T10:42:31.809Z,9.60
2023-03-27T10:44:59.703Z,10.00
2023-03-27T10:47:32.082Z,10.10
2023-03-27T10:50:40.676Z,10.20
2023-03-27T10:53:17.252Z,9.00
2023-03-27T10:56:10.687Z,9.00
2023-03-27T10:58:47.505Z,9.40
2023-03-27T11:01:18.956Z,9.40
2023-03-27T11:03:50.208Z,9.40
2023-03-27T11:06:23.039Z,9.30
2023-03-27T11:09:05.447Z,9.40
2023-03-27T11:11:38.693Z,9.50
2023-03-27T11:14:11.924Z,8.90
2023-03-27T11:16:41.550Z,9.30
2023-03-27T11:19:58.780Z,9.90
2023-03-27T11:22:50.568Z,10.10
2023-03-27T11:25:39.661Z,9.90
2023-03-27T11:28:18.304Z,9.50
2023-03-27T11:31:27.884Z,9.40
2023-03-27T11:34:00.679Z,10.00
2023-03-27T11:36:46.416Z,10.50
2023-03-27T11:39:40.790Z,10.60
2023-03-27T11:42:19.329Z,11.50
2023-03-27T11:44:48.256Z,12.00
2023-03-27T11:47:59.462Z,11.90
2023-03-27T11:50:38.759Z,10.90
2023-03-27T11:53:08.130Z,9.90
2023-03-27T11:56:14.052Z,9.90
2023-03-27T11:59:14.242Z,9.70
2023-03-27T12:02:27.738Z,10.20
2023-03-27T12:05:03.988Z,9.60
2023-03-27T12:08:12.258Z,9.80
2023-03-27T12:10:43.903Z,10.40
2023-03-27T12:13:38.544Z,9.90
2023-03-27T12:16:36.896Z,9.40
2023-03-27T12:19:38.827Z,10.30
2023-03-27T12:22:45.309Z,11.20
2023-03-27T12:25:38.591Z,11.20
2023-03-27T12:28:35.678Z,11.80
2023-03-27T12:31:19.996Z,12.10
2023-03-27T12:34:29.906Z,13.00
2023-03-27T12:36:59.262Z,13.10
2023-03-27T12:39:27.637Z,12.90
2023-03-27T12:41:59.273Z,13.40
2023-03-27T12:44:55.840Z,13.30
2023-03-27T12:47:29.529Z,13.60
2023-03-27T12:50:22.293Z,13.70
2023-03-27T12:52:53.111Z,14.00
2023-03-27T12:55:33.481Z,14.30
2023-03-27T12:58:02.144Z,14.30
2023-03-27T13:01:00.629Z,15.10
2023-03-27T13:04:15.809Z,15.10
2023-03-27T13:06:57.028Z,15.30
2023-03-27T13:09:54.114Z,15.30
2023-03-27T13:12:39.277Z,15.00
2023-03-27T13:15:17.346Z,15.00
2023-03-27T13:17:55.410Z,13.90
2023-03-27T13:20:40.242Z,13.40
2023-03-27T13:23:25.349Z,13.00
2023-03-27T13:26:19.615Z,12.70
2023-03-27T13:28:49.606Z,11.50
2023-03-27T13:31:56.779Z,10.30
2023-03-27T13:35:00.909Z,9.80
2023-03-27T13:37:36.799Z,8.90
2023-03-27T13:40:29.408Z,9.00
2023-03-27T13:43:14.633Z,9.40
2023-03-27T13:45:48.990Z,9.20
2023-03-27T13:48:33.386Z,9.70
2023-03-27T13:51:14.282Z,10.00
2023-03-27T13:54:12.862Z,9.70
2023-03-27T13:57:03.442Z,9.10
2023-03-27T14:00:02.895Z,9.00
2023-03-27T14:02:42.612Z,8.80
2023-03-27T14:05:33.538Z,9.20
2023-03-27T14:08:19.707Z,10.10
2023-03-27T14:11:45.130Z,9.80
2023-03-27T14:14:37.175Z,9.90
2023-03-27T14:17:28.867Z,9.70
2023-03-27T14:20:31.891Z,9.90
2023-03-27T14:23:16.516Z,10.80
2023-03-27T14:26:03.616Z,10.80
2023-03-27T14:28:51.435Z,11.40
2023-03-27T14:31:28.768Z,11.90
2023-03-27T14:34:10.038Z,12.70
2023-03-27T14:36:46.010Z,12.60
2023-03-27T14:39:24.630Z,11.30
2023-03-27T14:42:01.745Z,11.90
2023-03-27T14:44:32.194Z,12.40
2023-03-27T14:47:06.169Z,12.70
2023-03-27T14:49:48.933Z,12.60
2023-03-27T14:52:24.941Z,13.10
2023-03-27T14:55:29.803Z,13.40
2023-03-27T14:58:19.261Z,13.70
2023-03-27T15:00:59.961Z,14.50
2023-03-27T15:03:35.393Z,14.80
2023-03-27T15:06:05.909Z,14.60
2023-03-27T15:08:46.474Z,14.40
2023-03-27T15:11:21.564Z,14.20
2023-03-27T15:13:56.114Z,14.20
2023-03-27T15:16:29.761Z,13.60
2023-03-27T15:19:17.190Z,13.60
2023-03-27T15:22:07.355Z,13.00
2023-03-27T15:24:44.064Z,12.30
2023-03-27T15:27:32.404Z,11.80
2023-03-27T15:30:05.397Z,11.80
2023-03-27T15:32:42.432Z,11.50
2023-03-27T15:35:13.708Z,11.40
2023-03-27T15:37:40.362Z,11.10
2023-03-27T15:40:22.437Z,10.80
2023-03-27T15:42:52.068Z,9.60
2023-03-27T15:45:22.865Z,10.00
2023-03-27T15:48:00.835Z,9.90
2023-03-27T15:50:28.024Z,10.10
2023-03-27T15:53:01.294Z,10.00
2023-03-27T15:55:37.301Z,10.20
2023-03-27T15:58:42.168Z,10.10
2023-03-27T16:01:18.955Z,10.10
2023-03-27T16:03:48.208Z,10.50
2023-03-27T16:06:27.050Z,10.30
2023-03-27T16:08:53.793Z,10.40
2023-03-27T16:11:45.731Z,10.30
2023-03-27T16:14:41.690Z,10.70
2023-03-27T16:17:10.147Z,10.50
2023-03-27T16:19:54.272Z,10.50
2023-03-27T16:22:32.121Z,10.90
2023-03-27T16:25:00.299Z,10.30
2023-03-27T16:27:32.142Z,9.00
2023-03-27T16:29:58.732Z,8.00
2023-03-27T16:32:25.369Z,7.70
2023-03-27T16:34:52.061Z,7.30
2023-03-27T16:37:20.320Z,6.30
2023-03-27T16:39:46.985Z,6.40
2023-03-27T16:42:16.901Z,6.50
2023-03-27T16:44:44.199Z,6.50
2023-03-27T16:47:11.392Z,6.70
2023-03-27T16:49:38.389Z,6.80
2023-03-27T16:52:05.310Z,6.30
2023-03-27T16:54:32.052Z,6.00
2023-03-27T16:56:58.748Z,6.10
2023-03-27T16:59:25.555Z,6.50
2023-03-27T17:01:52.231Z,6.30
2023-03-27T17:04:18.971Z,6.40
2023-03-27T17:06:45.513Z,6.70
2023-03-27T17:09:12.648Z,7.10
2023-03-27T17:11:39.663Z,6.80
2023-03-27T17:14:06.710Z,6.60
2023-03-27T17:16:33.780Z,6.80
2023-03-27T17:19:00.651Z,6.00
2023-03-27T17:21:27.721Z,5.90
2023-03-27T17:23:54.411Z,5.90
2023-03-27T17:26:26.874Z,5.80
2023-03-27T17:28:53.743Z,6.00
2023-03-27T17:31:20.679Z,5.80
2023-03-27T17:33:47.497Z,5.80
2023-03-27T17:36:17.435Z,5.60
2023-03-27T17:38:46.456Z,5.70
2023-03-27T17:41:14.413Z,5.80
2023-03-27T17:43:40.987Z,5.90
2023-03-27T17:46:08.137Z,6.20
2023-03-27T17:48:36.321Z,6.60
2023-03-27T17:51:09.225Z,6.90
2023-03-27T17:53:38.044Z,7.40
2023-03-27T17:56:04.893Z,7.40
2023-03-27T17:58:34.075Z,7.40
2023-03-27T18:01:12.168Z,7.70
2023-03-27T18:03:38.767Z,7.80
2023-03-27T18:06:05.864Z,7.80
2023-03-27T18:08:32.366Z,7.10
2023-03-27T18:10:58.963Z,7.10
2023-03-27T18:13:25.637Z,6.80
2023-03-27T18:18:40.125Z,6.80
2023-03-27T18:21:15.570Z,7.10
2023-03-27T18:23:45.524Z,7.30
2023-03-27T18:26:13.057Z,7.60
2023-03-27T18:28:39.535Z,7.50
2023-03-27T18:31:11.611Z,7.10
2023-03-27T18:33:38.512Z,6.80
2023-03-27T18:36:10.400Z,6.80
2023-03-27T18:38:41.824Z,6.40
2023-03-27T18:41:09.685Z,6.70
2023-03-27T18:43:36.658Z,6.50
2023-03-27T18:46:05.825Z,5.80
2023-03-27T18:48:33.813Z,5.80
2023-03-27T18:51:02.530Z,6.00
2023-03-27T18:53:29.446Z,5.90
2023-03-27T18:55:58.409Z,5.40
2023-03-27T18:58:27.336Z,6.10
2023-03-27T19:00:57.151Z,5.50
2023-03-27T19:03:25.959Z,5.80
2023-03-27T19:05:52.970Z,5.70
2023-03-27T19:08:20.901Z,5.90
2023-03-27T19:10:47.597Z,5.60
2023-03-27T19:13:20.657Z,5.70
2023-03-27T19:16:15.371Z,6.10
2023-03-27T19:19:01.009Z,5.90
2023-03-27T19:21:59.838Z,6.30
2023-03-27T19:24:56.243Z,6.20
2023-03-27T19:27:24.031Z,6.20
2023-03-27T19:29:51.926Z,6.20
2023-03-27T19:32:18.476Z,5.70
2023-03-27T19:34:45.026Z,5.80
2023-03-27T19:37:12.023Z,5.70
2023-03-27T19:39:38.553Z,5.50
2023-03-27T19:42:05.635Z,5.60
2023-03-27T19:44:36.561Z,5.30
2023-03-27T19:47:03.667Z,5.40
2023-03-27T19:49:30.461Z,5.60
2023-03-27T19:52:20.361Z,5.20
2023-03-27T19:54:46.940Z,4.90
2023-03-27T19:57:13.536Z,5.20
2023-03-27T19:59:40.199Z,5.10
2023-03-27T20:02:06.952Z,5.40
2023-03-27T20:04:33.456Z,5.10
2023-03-27T20:07:02.133Z,5.40
2023-03-27T20:09:28.931Z,5.50
2023-03-27T20:11:55.862Z,5.70
2023-03-27T20:14:22.449Z,5.60
2023-03-27T20:16:50.873Z,5.70
2023-03-27T20:19:17.649Z,5.10
2023-03-27T20:21:44.423Z,4.60
2023-03-27T20:24:16.528Z,5.00
2023-03-27T20:26:50.969Z,5.20
2023-03-27T20:29:23.608Z,4.90
2023-03-27T20:31:50.392Z,4.50
2023-03-27T20:34:19.604Z,4.20
2023-03-27T20:36:46.788Z,4.60
2023-03-27T20:39:38.680Z,5.00
2023-03-27T20:42:07.539Z,4.60
2023-03-27T20:44:37.058Z,4.30
2023-03-27T20:47:10.671Z,4.50
2023-03-27T20:49:42.776Z,4.60
2023-03-27T20:52:11.299Z,5.00
2023-03-27T20:54:37.952Z,4.70
2023-03-27T20:57:05.402Z,5.00
2023-03-27T20:59:34.977Z,4.90
2023-03-27T21:02:01.793Z,5.30
2023-03-27T21:04:29.016Z,5.20
2023-03-27T21:06:55.866Z,5.10
2023-03-27T21:09:23.557Z,5.10
2023-03-27T21:11:56.186Z,5.00
2023-03-27T21:14:23.147Z,5.20
2023-03-27T21:16:55.886Z,4.90
2023-03-27T21:19:22.505Z,5.00
2023-03-27T21:21:49.487Z,5.20
2023-03-27T21:24:16.141Z,5.60
2023-03-27T21:26:42.907Z,4.90
2023-03-27T21:29:10.812Z,4.70
2023-03-27T21:31:40.516Z,5.00
2023-03-27T21:34:07.412Z,4.40
2023-03-27T21:36:34.614Z,4.60
2023-03-27T21:39:01.340Z,4.80
2023-03-27T21:41:30.839Z,5.10
2023-03-27T21:43:57.326Z,5.10
2023-03-27T21:46:23.989Z,4.90
2023-03-27T21:48:52.135Z,5.00
2023-03-27T21:51:19.329Z,5.40
2023-03-27T21:53:50.517Z,5.20
2023-03-27T21:56:20.137Z,4.80
2023-03-27T21:58:46.668Z,4.90
2023-03-27T22:01:15.619Z,4.80
2023-03-27T22:03:44.888Z,5.10
2023-03-27T22:06:19.352Z,5.20
2023-03-27T22:08:48.949Z,5.10
2023-03-27T22:11:16.050Z,5.30
2023-03-27T22:13:43.325Z,5.10
2023-03-27T22:16:13.308Z,5.00
2023-03-27T22:18:40.437Z,4.90
2023-03-27T22:21:25.203Z,4.70
2023-03-27T22:23:52.783Z,4.90
2023-03-27T22:26:21.986Z,4.70
2023-03-27T22:28:48.647Z,4.70
2023-03-27T22:31:15.266Z,4.80
2023-03-27T22:33:41.941Z,5.10
2023-03-27T22:36:09.719Z,4.60
2023-03-27T22:38:36.332Z,4.90
2023-03-27T22:41:04.549Z,4.80
2023-03-27T22:43:31.149Z,4.70
2023-03-27T22:46:09.257Z,5.00
2023-03-27T22:48:35.814Z,4.90
2023-03-27T22:51:02.598Z,4.80
2023-03-27T22:53:31.653Z,4.90
2023-03-27T22:55:59.168Z,5.00
2023-03-27T22:58:26.381Z,5.20
2023-03-27T23:00:54.124Z,5.00
2023-03-27T23:03:21.648Z,4.70
2023-03-27T23:05:49.436Z,5.00
2023-03-27T23:08:17.817Z,4.60
2023-03-27T23:10:44.640Z,4.90
2023-03-27T23:13:12.037Z,4.80
2023-03-27T23:15:38.876Z,4.50
2023-03-27T23:18:05.834Z,4.90
2023-03-27T23:20:32.652Z,4.70
2023-03-27T23:22:59.242Z,4.80
2023-03-27T23:25:25.860Z,4.90
2023-03-27T23:27:52.399Z,4.90
2023-03-27T23:30:19.115Z,5.10
2023-03-27T23:32:45.842Z,5.00
2023-03-27T23:35:12.432Z,5.10
2023-03-27T23:37:38.980Z,4.80
2023-03-27T23:40:06.370Z,4.70
2023-03-27T23:42:32.884Z,4.90
2023-03-27T23:44:59.383Z,5.00
2023-03-27T23:47:26.025Z,5.40
2023-03-27T23:49:52.629Z,4.90
2023-03-27T23:52:29.059Z,4.90
2023-03-27T23:54:55.609Z,4.80
2023-03-27T23:57:22.279Z,3.50
2023-03-27T23:59:48.904Z,2.40
